Observations for INVERNESS DALCROSS, United Kingdom (EGPE)

EGPE 130850Z 16010KT 9999 FEW020 05/M02 Q1017   
EGPE 130820Z 18010KT 120V200 9999 FEW020 05/M02 Q1016   
EGPE 130750Z VRB03KT 9999 FEW025 02/M02 Q1016   
EGPE 130720Z VRB03KT 9999 FEW030 04/M03 Q1015   
EGPE 130650Z 04009KT CAVOK 04/M02 Q1015 
EGPE 130620Z VRB01KT CAVOK 03/M03 Q1015 
EGPE 130550Z 18006KT 9999 FEW020 04/M02 Q1015   
EGPE 130520Z 19007KT 9999 FEW020 03/M02 Q1016   
EGPE 130450Z 14004KT CHECK TEXT NEW ENDING ADDED EGGGYFAC   
EGPE 130420Z 10004KT 050V130 9999 FEW020 04/M02 Q1015   
EGPE 130350Z 09004KT 020V160 9999 FEW020 04/M03 Q1015   
EGPE 130320Z 12005KT 090V160 9999 FEW020 04/M03 Q1016   
EGPE 130250Z 15006G17KT 070V230 9999 FEW020 04/M03 Q1016
EGPE 130220Z VRB02KT 9999 FEW020 04/M03 Q1016   
EGPE 130150Z AUTO 15008KT 100V190 9999 NCD 05/M03 Q1016 
EGPE 130120Z AUTO VRB02KT 9999 NCD 02/M04 Q1016 
EGPE 130050Z AUTO 12004KT 070V220 9999 NCD 05/M04 Q1016 
EGPE 130020Z AUTO 14008KT 9999 NCD 04/M03 Q1016 
EGPE 122350Z AUTO VRB03KT 9999 NCD 02/M02 Q1016 
EGPE 122320Z AUTO 19006KT 140V240 9999 NCD 01/M01 Q1015 
EGPE 122250Z AUTO VRB01KT 9999 NCD 01/M01 Q1015 
EGPE 122220Z AUTO 00000KT 9999 FEW041/// 02/M01 Q1015   
EGPE 122150Z AUTO VRB03KT 9999 NCD 05/01 Q1015  
EGPE 122120Z 16006KT 9999 FEW020 04/01 Q1015
EGPE 122050Z VRB02KT 9999 FEW020 SCT046 05/01 Q1016 
EGPE 122020Z 16004KT 9999 FEW020 04/01 Q1016
EGPE 121950Z 00000KT 9999 FEW020 04/01 Q1016
EGPE 121920Z VRB01KT 9999 FEW020 03/01 Q1016
EGPE 121850Z 17003KT 9999 FEW020 05/02 Q1016
EGPE 121820Z 16007KT 9999 FEW020 06/03 Q1015
EGPE 121750Z 15007KT 9999 FEW020 07/03 Q1016
EGPE 121720Z 15010KT 9999 FEW020 SCT030 07/03 Q1016 
EGPE 121650Z 16009KT 120V200 9999 FEW020 SCT028 07/03 Q1016 
EGPE 121620Z VRB02KT 9999 FEW020 BKN026 07/03 Q1016 
EGPE 121550Z 13007KT 090V170 9999 FEW020 SCT028 08/03 Q1016 
EGPE 121520Z VRB04KT 9999 FEW020 SCT033 07/03 Q1016 
EGPE 121450Z VRB03KT 9999 FEW020 SCT032 08/04 Q1016 
EGPE 121420Z VRB02KT 9999 FEW020 SCT031 09/04 Q1016 
EGPE 121350Z VRB05KT 9999 SCT030 09/04 Q1016
EGPE 121320Z 17009G21KT 110V210 9999 SCT028 09/04 Q1016 
EGPE 121250Z VRB05G18KT 9999 FEW027 10/05 Q1017 
EGPE 121220Z VRB04KT 9999 SCT025 10/05 Q1017
EGPE 121150Z VRB04KT 9999 SCT026 09/05 Q1017
EGPE 121120Z 18006KT 130V220 9999 FEW026 09/05 Q1017
EGPE 121050Z 12006KT 070V180 9999 FEW026 09/05 Q1017
EGPE 121020Z VRB02KT 9999 SCT026 08/05 Q1017
EGPE 120950Z VRB01KT 9999 SCT026 08/05 Q1018
EGPE 120920Z 03003KT 9999 SCT026 08/05 Q1018
EGPE 120850Z 09005KT 010V160 9999 SCT045 08/05 Q1017
EGPE 120820Z 14006KT 090V170 9999 BKN038 09/05 Q1017